KGVL/GVL METAR and TAF weather

Enter ICAO airport designator
Station Type Date Time Source
KGVL METAR 2019/12/09 21:53 UTC NOAA

KGVL 092153Z AUTO 10003KT 1/4SM FG VV002 07/07 A3000 RMK AO2 SLP159 T00670067


Station Type Date Time Source
KGVL Decoded METAR 2019/12/09 21:53 UTC NOAA

GILMER MEMORIAL AIRPORT, GA, United States (KGVL) 34-16N 83-50W 386M
Dec 09, 2019 - 04:53 PM EST / 2019.12.09 2153 UTC
Wind: from the E (100 degrees) at 3 MPH (3 KT):0
Visibility: 1/4 mile(s):0
Sky conditions: obscured
Weather: fog
Temperature: 44.1 F (6.7 C)
Dew Point: 44.1 F (6.7 C)
Relative Humidity: 100%
Pressure (altimeter): 30 in. Hg (1015 hPa)
ob: KGVL 092153Z AUTO 10003KT 1/4SM FG VV002 07/07 A3000 RMK AO2 SLP159 T00670067
cycle: 22

Station Type Date Time Source
KGVL TAF UTC NOAA

Error!

Example: see airport list